createdAt,value
2022-09-03T00:01:08.750Z,98447.5
2022-09-03T00:06:43.598Z,98438.5
2022-09-03T00:12:18.552Z,98430.7
2022-09-03T00:17:53.815Z,98423.3
2022-09-03T00:23:50.472Z,98415.6
2022-09-03T00:29:25.239Z,98416.3
2022-09-03T00:35:00.198Z,98425.3
2022-09-03T00:40:35.176Z,98427.8
2022-09-03T00:46:10.430Z,98404.6
2022-09-03T00:51:45.988Z,98398.4
2022-09-03T00:57:21.186Z,98402.4
2022-09-03T01:02:56.350Z,98412.9
2022-09-03T01:08:31.363Z,98408.5
2022-09-03T01:14:06.602Z,98411.9
2022-09-03T01:19:42.618Z,98414.2
2022-09-03T01:31:31.975Z,98423
2022-09-03T01:37:07.538Z,98413.1
2022-09-03T01:43:04.445Z,98410
2022-09-03T01:48:38.034Z,98414.5
2022-09-03T01:54:22.065Z,98415.4
2022-09-03T01:59:56.809Z,98409.5
2022-09-03T02:05:31.877Z,98408.4
2022-09-03T02:11:06.688Z,98402.5
2022-09-03T02:16:41.429Z,98410.6
2022-09-03T02:22:38.454Z,98410.8
2022-09-03T02:28:18.556Z,98406.2
2022-09-03T02:33:53.949Z,98410.6
2022-09-03T02:39:29.492Z,98408.6
2022-09-03T02:45:04.820Z,98406.5
2022-09-03T02:50:39.518Z,98412.3
2022-09-03T02:56:15.338Z,98403.6
2022-09-03T03:01:51.686Z,98403.5
2022-09-03T03:07:27.925Z,98403.8
2022-09-03T03:13:02.664Z,98405.2
2022-09-03T03:18:37.386Z,98397.9
2022-09-03T03:24:34.390Z,98387.9
2022-09-03T03:30:07.995Z,98386.6
2022-09-03T03:35:43.283Z,98381
2022-09-03T03:41:18.059Z,98377
2022-09-03T03:46:52.892Z,98375.7
2022-09-03T03:52:27.741Z,98366.1
2022-09-03T03:58:02.967Z,98357.4
2022-09-03T04:03:39.123Z,98350.1
2022-09-03T04:09:13.847Z,98340.7
2022-09-03T04:14:48.622Z,98340.6
2022-09-03T04:20:23.719Z,98338
2022-09-03T04:26:20.150Z,98335.6
2022-09-03T04:31:53.772Z,98337.6
2022-09-03T04:37:28.704Z,98336.7
2022-09-03T04:43:03.622Z,98337.2
2022-09-03T04:48:39.480Z,98342.1
2022-09-03T04:54:14.445Z,98340.1
2022-09-03T04:59:49.497Z,98344.1
2022-09-03T05:05:24.201Z,98340.3
2022-09-03T05:10:59.029Z,98339
2022-09-03T05:16:34.299Z,98339.3
2022-09-03T05:22:11.260Z,98336.2
2022-09-03T05:27:46.028Z,98333.4
2022-09-03T05:33:20.717Z,98334.3
2022-09-03T05:38:55.770Z,98338.1
2022-09-03T05:44:33.523Z,98339.6
2022-09-03T05:50:09.420Z,98346.1
2022-09-03T05:55:44.383Z,98351.6
2022-09-03T06:01:21.745Z,98353
2022-09-03T06:06:56.761Z,98354.5
2022-09-03T06:12:37.489Z,98359.7
2022-09-03T06:18:12.276Z,98355.6
2022-09-03T06:24:09.498Z,98357.3
2022-09-03T06:29:42.274Z,98357.2
2022-09-03T06:35:17.264Z,98364.2
2022-09-03T06:40:52.173Z,98368
2022-09-03T06:46:26.985Z,98371.5
2022-09-03T06:52:02.161Z,98384.2
2022-09-03T06:57:40.031Z,98386.4
2022-09-03T07:03:14.637Z,98382.3
2022-09-03T07:08:49.460Z,98386
2022-09-03T07:14:34.369Z,98385.6
2022-09-03T07:20:10.014Z,98384.2
2022-09-03T07:26:06.928Z,98380.7
2022-09-03T07:31:41.013Z,98382.7
2022-09-03T07:37:16.355Z,98384.3
2022-09-03T07:42:55.609Z,98392.1
2022-09-03T07:48:37.972Z,98385.8
2022-09-03T07:54:19.369Z,98396.4
2022-09-03T07:59:54.161Z,98393.5
2022-09-03T08:05:31.100Z,98389.7
2022-09-03T08:11:06.461Z,98401.3
2022-09-03T08:17:03.346Z,98400.8
2022-09-03T08:22:37.169Z,98408.8
2022-09-03T08:28:12.140Z,98410.9
2022-09-03T08:33:46.985Z,98413.8
2022-09-03T08:39:22.109Z,98406
2022-09-03T08:44:57.792Z,98400.8
2022-09-03T08:50:32.591Z,98401.8
2022-09-03T08:56:07.642Z,98404.5
2022-09-03T09:01:43.697Z,98403.2
2022-09-03T09:07:20.132Z,98403.3
2022-09-03T09:12:55.005Z,98405.6
2022-09-03T09:18:30.064Z,98406.7
2022-09-03T09:24:26.667Z,98404.8
2022-09-03T09:30:00.500Z,98394.7
2022-09-03T09:35:35.530Z,98398.4
2022-09-03T09:41:11.353Z,98398.2
2022-09-03T09:46:54.634Z,98399.7
2022-09-03T09:52:30.020Z,98393.1
2022-09-03T09:58:05.062Z,98395.9
2022-09-03T10:03:40.616Z,98385.7
2022-09-03T10:09:16.655Z,98380.4
2022-09-03T10:14:52.561Z,98364.2
2022-09-03T10:20:27.630Z,98371.1
2022-09-03T10:26:28.290Z,98359.4
2022-09-03T10:32:06.325Z,98368.9
2022-09-03T10:38:03.098Z,98354
2022-09-03T10:43:38.054Z,98356.5
2022-09-03T10:49:12.977Z,98346.3
2022-09-03T10:54:48.916Z,98339.7
2022-09-03T11:00:24.136Z,98337
2022-09-03T11:05:59.018Z,98333.9
2022-09-03T11:11:34.283Z,98333.9
2022-09-03T11:17:09.390Z,98320.7
2022-09-03T11:22:44.242Z,98317.7
2022-09-03T11:28:20.243Z,98318.9
2022-09-03T11:33:54.966Z,98309.9
2022-09-03T11:39:31.201Z,98302.7
2022-09-03T11:45:09.003Z,98302.4
2022-09-03T11:50:47.044Z,98297
2022-09-03T11:56:21.888Z,98287.3
2022-09-03T12:01:59.767Z,98289
2022-09-03T12:07:36.820Z,98286
2022-09-03T12:13:11.741Z,98278
2022-09-03T12:18:46.569Z,98275.6
2022-09-03T12:24:43.468Z,98268.3
2022-09-03T12:30:18.255Z,98268.9
2022-09-03T12:36:01.411Z,98265.1
2022-09-03T12:41:38.486Z,98259
2022-09-03T12:47:44.931Z,98268.5
2022-09-03T12:53:20.648Z,98266.8
2022-09-03T12:59:17.343Z,98271.2
2022-09-03T13:04:52.390Z,98266.6
2022-09-03T13:10:28.861Z,98262
2022-09-03T13:16:05.122Z,98266.5
2022-09-03T13:21:39.914Z,98263.4
2022-09-03T13:27:14.780Z,98258.3
2022-09-03T13:32:49.584Z,98256.3
2022-09-03T13:38:47.226Z,98263.5
2022-09-03T13:44:21.117Z,98262.4
2022-09-03T13:50:18.095Z,98259.1
2022-09-03T13:55:51.672Z,98262.6
2022-09-03T14:01:28.087Z,98261
2022-09-03T14:07:03.428Z,98256.6
2022-09-03T14:12:38.434Z,98256.5
2022-09-03T14:18:14.085Z,98252.9
2022-09-03T14:24:10.558Z,98238
2022-09-03T14:29:44.278Z,98251.3
2022-09-03T14:35:20.373Z,98239.8
2022-09-03T14:41:17.019Z,98244.1
2022-09-03T14:46:50.944Z,98247.2
2022-09-03T14:52:25.844Z,98250.1
2022-09-03T14:58:01.681Z,98245.8
2022-09-03T15:03:36.785Z,98243.3
2022-09-03T15:09:11.885Z,98241.2
2022-09-03T15:14:47.830Z,98244.7
2022-09-03T15:20:47.318Z,98244.8
2022-09-03T15:26:42.706Z,98249.6
2022-09-03T15:32:17.471Z,98250.1
2022-09-03T15:37:52.319Z,98250.2
2022-09-03T15:43:27.322Z,98247.5
2022-09-03T15:49:02.158Z,98244
2022-09-03T15:54:37.441Z,98238.7
2022-09-03T16:00:12.365Z,98235.1
2022-09-03T16:06:17.788Z,98226.1
2022-09-03T16:11:51.499Z,98220.5
2022-09-03T16:17:26.334Z,98211.4
2022-09-03T16:23:01.046Z,98210.4
2022-09-03T16:28:36.051Z,98208.3
2022-09-03T16:34:19.432Z,98209.7
2022-09-03T16:39:56.223Z,98209.8
2022-09-03T16:45:32.866Z,98213
2022-09-03T16:51:08.462Z,98212.5
2022-09-03T16:56:43.276Z,98206.7
2022-09-03T17:02:42.731Z,98211.6
2022-09-03T17:08:18.783Z,98218.5
2022-09-03T17:13:53.988Z,98211
2022-09-03T17:19:28.994Z,98212.8
2022-09-03T17:25:03.950Z,98217.1
2022-09-03T17:30:39.141Z,98212.8
2022-09-03T17:36:13.977Z,98212.7
2022-09-03T17:41:50.105Z,98217.2
2022-09-03T17:47:25.837Z,98219.3
2022-09-03T17:53:08.109Z,98227.6
2022-09-03T17:58:43.247Z,98228.3
2022-09-03T18:04:18.609Z,98224.5
2022-09-03T18:09:54.380Z,98222
2022-09-03T18:15:29.188Z,98226.9
2022-09-03T18:21:31.847Z,98225.6
2022-09-03T18:27:06.956Z,98227.7
2022-09-03T18:32:47.340Z,98232.7
2022-09-03T18:38:27.468Z,98234.7
2022-09-03T18:44:02.245Z,98238.5
2022-09-03T18:49:37.397Z,98237.1
2022-09-03T18:55:12.074Z,98248.2
2022-09-03T19:00:47.124Z,98255.7
2022-09-03T19:06:22.049Z,98257.9
2022-09-03T19:12:00.444Z,98262.5
2022-09-03T19:17:36.272Z,98274.1
2022-09-03T19:23:12.206Z,98279
2022-09-03T19:28:47.062Z,98287.5
2022-09-03T19:34:22.088Z,98285
2022-09-03T19:39:57.511Z,98289.3
2022-09-03T19:45:33.824Z,98303.3
2022-09-03T19:51:08.909Z,98304.8
2022-09-03T19:56:43.653Z,98298.1
2022-09-03T20:02:19.664Z,98298
2022-09-03T20:07:55.795Z,98301.6
2022-09-03T20:13:30.601Z,98304.7
2022-09-03T20:19:05.496Z,98305.5
2022-09-03T20:25:02.267Z,98305.7
2022-09-03T20:30:35.929Z,98311.6
2022-09-03T20:36:10.759Z,98313.2
2022-09-03T20:41:46.488Z,98315.5
2022-09-03T20:47:21.196Z,98314.6
2022-09-03T20:52:56.026Z,98310.4
2022-09-03T20:58:30.749Z,98308.1
2022-09-03T21:04:05.551Z,98315.3
2022-09-03T21:09:40.400Z,98326
2022-09-03T21:15:16.533Z,98335.4
2022-09-03T21:20:51.631Z,98345.4
2022-09-03T21:26:26.617Z,98341.7
2022-09-03T21:32:02.507Z,98340.6
2022-09-03T21:37:37.431Z,98347
2022-09-03T21:43:12.403Z,98344.5
2022-09-03T21:48:47.279Z,98336.8
2022-09-03T21:54:22.245Z,98342
2022-09-03T21:59:57.142Z,98349.1
2022-09-03T22:05:31.955Z,98352.9
2022-09-03T22:11:17.100Z,98357.3
2022-09-03T22:16:52.245Z,98365.7
2022-09-03T22:22:29.022Z,98366.1
2022-09-03T22:28:03.800Z,98368.5
2022-09-03T22:33:38.640Z,98365.4
2022-09-03T22:39:13.522Z,98372.6
2022-09-03T22:44:48.355Z,98372.9
2022-09-03T22:50:23.506Z,98372.8
2022-09-03T22:55:58.410Z,98376.7
2022-09-03T23:01:33.806Z,98377.1
2022-09-03T23:07:30.940Z,98385.4
2022-09-03T23:13:04.541Z,98381.7
2022-09-03T23:19:01.675Z,98384.2
2022-09-03T23:24:35.625Z,98382.6
2022-09-03T23:30:10.370Z,98378.6
2022-09-03T23:35:45.161Z,98379.5
2022-09-03T23:41:26.263Z,98382.4
2022-09-03T23:47:01.098Z,98379.7
2022-09-03T23:52:36.750Z,98374.9
2022-09-03T23:58:11.444Z,98375.1
